Time;durP1;ratioP1;P1;durP2;ratioP2;P2;SDS_P1;SDS_P2;PMS_P1;PMS_P2;Temp;Humidity;BMP_temperature;BMP_pressure;BME280_temperature;BME280_humidity;BME280_pressure;Samples;Min_cycle;Max_cycle;Signal;HPM_P1;HPM_P2
2021/11/18 00:01:21;;;;;;;18.13;4.97;;;7.40;99.90;;;;;;5099715;28;20655;-70
2021/11/18 00:03:48;;;;;;;17.77;3.97;;;7.30;99.90;;;;;;5096688;28;20206;-70
2021/11/18 00:06:16;;;;;;;9.90;3.20;;;7.30;99.90;;;;;;5092340;28;20315;-71
2021/11/18 00:08:45;;;;;;;12.60;5.07;;;7.40;99.90;;;;;;5098297;28;20256;-71
2021/11/18 00:11:13;;;;;;;18.75;4.53;;;7.40;99.90;;;;;;5096555;28;20237;-69
2021/11/18 00:13:42;;;;;;;12.68;3.90;;;7.30;99.90;;;;;;5099464;28;20237;-70
2021/11/18 00:16:10;;;;;;;16.65;3.35;;;7.40;99.90;;;;;;5101967;28;20750;-70
2021/11/18 00:18:38;;;;;;;13.80;4.35;;;7.40;99.90;;;;;;5096596;28;20246;-70
2021/11/18 00:21:07;;;;;;;17.17;3.47;;;7.30;99.90;;;;;;5095769;28;20647;-70
2021/11/18 00:23:36;;;;;;;17.48;4.50;;;7.30;99.90;;;;;;5093276;28;20269;-70
2021/11/18 00:26:06;;;;;;;13.70;4.32;;;7.30;99.90;;;;;;5105194;28;20224;-70
2021/11/18 00:28:33;;;;;;;13.52;3.42;;;7.30;99.90;;;;;;5101800;28;20601;-70
2021/11/18 00:31:00;;;;;;;15.55;3.20;;;7.30;99.90;;;;;;5108001;28;20245;-69
2021/11/18 00:33:28;;;;;;;10.63;3.85;;;7.30;99.90;;;;;;5095833;28;20201;-69
2021/11/18 00:35:55;;;;;;;8.45;3.25;;;7.30;99.90;;;;;;5095048;28;20282;-70
2021/11/18 00:38:22;;;;;;;11.63;3.83;;;7.30;99.90;;;;;;5097493;28;20223;-69
2021/11/18 00:40:52;;;;;;;7.07;4.63;;;7.40;99.90;;;;;;5101427;28;20206;-69
2021/11/18 00:43:21;;;;;;;11.20;3.85;;;7.40;99.90;;;;;;5093649;28;20251;-69
2021/11/18 00:45:51;;;;;;;14.60;4.22;;;7.40;99.90;;;;;;5095136;28;20683;-70
2021/11/18 00:48:18;;;;;;;15.30;4.05;;;7.50;99.90;;;;;;5096646;28;20250;-69
2021/11/18 00:50:48;;;;;;;14.80;4.57;;;7.50;99.90;;;;;;5101079;28;20209;-70
2021/11/18 00:53:16;;;;;;;9.73;4.15;;;7.60;99.90;;;;;;5098312;28;20213;-70
2021/11/18 00:55:43;;;;;;;9.85;3.92;;;7.60;99.90;;;;;;5092577;28;20275;-70
2021/11/18 00:58:11;;;;;;;10.85;4.03;;;7.60;99.90;;;;;;5095901;28;20201;-70
2021/11/18 01:00:42;;;;;;;12.50;3.00;;;7.70;99.90;;;;;;5090115;28;20563;-70
2021/11/18 01:03:10;;;;;;;10.95;4.30;;;7.80;99.90;;;;;;5097654;28;20266;-70
2021/11/18 01:05:39;;;;;;;13.07;4.30;;;7.80;99.90;;;;;;5094530;28;20229;-70
2021/11/18 01:08:07;;;;;;;12.63;4.22;;;7.80;99.90;;;;;;5095032;28;20225;-70
2021/11/18 01:10:38;;;;;;;10.88;3.67;;;7.80;99.90;;;;;;5089612;28;20291;-70
2021/11/18 01:13:06;;;;;;;12.05;4.18;;;7.90;99.90;;;;;;5095432;28;20210;-71
2021/11/18 01:15:35;;;;;;;10.27;3.90;;;7.90;99.90;;;;;;5094430;28;20591;-71
2021/11/18 01:18:05;;;;;;;15.10;4.22;;;7.80;99.90;;;;;;5085511;28;20282;-70
2021/11/18 01:20:34;;;;;;;39.63;5.15;;;7.90;99.90;;;;;;5077556;28;20230;-70
2021/11/18 01:23:03;;;;;;;12.77;4.28;;;7.90;99.90;;;;;;5075316;28;20280;-71
2021/11/18 01:25:32;;;;;;;16.45;3.80;;;8.00;99.90;;;;;;5088488;28;20293;-70
2021/11/18 01:27:59;;;;;;;10.13;5.53;;;8.00;99.90;;;;;;5085659;28;20246;-69
2021/11/18 01:30:29;;;;;;;9.43;3.97;;;8.10;99.90;;;;;;5094036;28;20198;-69
2021/11/18 01:32:57;;;;;;;7.40;4.72;;;8.10;99.90;;;;;;5091716;28;20275;-70
2021/11/18 01:35:26;;;;;;;16.58;5.07;;;8.10;99.90;;;;;;5085214;28;20210;-71
2021/11/18 01:37:54;;;;;;;14.07;4.30;;;8.10;99.90;;;;;;5085537;28;20195;-71
2021/11/18 01:40:25;;;;;;;14.60;4.40;;;8.20;99.90;;;;;;5090271;28;20202;-70
2021/11/18 01:42:53;;;;;;;8.10;3.22;;;8.20;99.90;;;;;;5090124;28;20206;-71
2021/11/18 01:45:22;;;;;;;7.07;3.55;;;8.20;99.90;;;;;;5092421;28;20201;-70
2021/11/18 01:47:50;;;;;;;12.43;3.42;;;8.20;99.90;;;;;;5081396;28;20213;-70
2021/11/18 01:50:20;;;;;;;6.63;3.53;;;8.30;99.90;;;;;;5090905;28;20619;-72
2021/11/18 01:52:49;;;;;;;9.88;3.80;;;8.30;99.90;;;;;;5093338;28;20198;-72
2021/11/18 01:55:18;;;;;;;7.80;3.13;;;8.30;99.90;;;;;;5092827;28;20237;-70
2021/11/18 01:57:45;;;;;;;9.07;3.08;;;8.40;99.90;;;;;;5091862;28;20272;-70
2021/11/18 02:00:16;;;;;;;16.05;5.00;;;8.40;99.90;;;;;;5091144;28;20228;-70
2021/11/18 02:02:46;;;;;;;15.88;4.70;;;8.40;99.90;;;;;;5078606;28;20653;-70
2021/11/18 02:05:18;;;;;;;16.52;4.18;;;8.40;99.90;;;;;;5091687;28;20226;-71
2021/11/18 02:07:46;;;;;;;10.65;4.57;;;8.40;99.90;;;;;;5092943;28;20228;-71
2021/11/18 02:10:17;;;;;;;12.98;4.57;;;8.50;99.90;;;;;;5093894;28;20614;-71
2021/11/18 02:12:45;;;;;;;16.95;4.82;;;8.40;99.90;;;;;;5090801;28;21057;-71
2021/11/18 02:15:26;;;;;;;16.10;3.85;;;8.40;99.90;;;;;;5088471;28;20207;-71
2021/11/18 02:17:55;;;;;;;15.10;3.85;;;8.40;99.90;;;;;;5080452;28;20287;-71
2021/11/18 02:20:27;;;;;;;20.55;5.85;;;8.40;99.90;;;;;;5085548;28;20204;-71
2021/11/18 02:22:55;;;;;;;14.23;4.00;;;8.50;99.90;;;;;;5092799;28;20621;-71
2021/11/18 02:25:26;;;;;;;14.43;4.35;;;8.50;99.90;;;;;;5092119;28;20306;-70
2021/11/18 02:27:54;;;;;;;8.73;2.75;;;8.40;99.90;;;;;;5093272;28;20213;-71
2021/11/18 02:30:23;;;;;;;14.05;4.68;;;8.30;99.90;;;;;;5087030;28;20269;-71
2021/11/18 02:32:50;;;;;;;12.30;4.50;;;8.30;99.90;;;;;;5089716;28;20636;-71
2021/11/18 02:35:21;;;;;;;21.40;6.50;;;8.30;99.90;;;;;;5091300;28;20749;-71
2021/11/18 02:37:50;;;;;;;14.77;5.07;;;8.20;99.90;;;;;;5092895;28;20260;-70
2021/11/18 02:40:18;;;;;;;8.82;3.92;;;8.10;99.90;;;;;;5090506;28;20241;-70
2021/11/18 02:42:47;;;;;;;10.02;4.20;;;8.20;99.90;;;;;;5092547;28;20720;-70
2021/11/18 02:45:18;;;;;;;15.02;4.30;;;8.20;99.90;;;;;;5087691;28;20235;-70
2021/11/18 02:47:46;;;;;;;9.38;4.30;;;8.20;99.90;;;;;;5084390;28;20278;-71
2021/11/18 02:50:15;;;;;;;9.82;4.10;;;8.20;99.90;;;;;;5091886;28;20267;-71
2021/11/18 02:52:44;;;;;;;12.93;5.57;;;8.20;99.90;;;;;;5090906;28;20263;-70
2021/11/18 02:55:14;;;;;;;13.13;6.50;;;8.20;99.90;;;;;;5091279;28;20263;-70
2021/11/18 02:57:41;;;;;;;9.57;4.57;;;8.20;99.90;;;;;;5088957;28;20198;-70
2021/11/18 03:00:11;;;;;;;18.15;4.85;;;8.20;99.90;;;;;;5089823;28;20572;-70
2021/11/18 03:02:38;;;;;;;14.55;4.57;;;8.10;99.90;;;;;;5096978;28;20251;-70
2021/11/18 03:05:19;;;;;;;16.27;5.28;;;8.10;99.90;;;;;;5097549;28;20205;-70
2021/11/18 03:07:47;;;;;;;7.75;4.40;;;8.00;99.90;;;;;;5101606;28;20198;-71
2021/11/18 03:10:17;;;;;;;19.10;5.50;;;8.00;99.90;;;;;;5101437;28;20198;-70
2021/11/18 03:12:45;;;;;;;23.23;7.22;;;7.90;99.90;;;;;;5100330;28;21531;-71
2021/11/18 03:15:14;;;;;;;12.82;4.63;;;8.00;99.90;;;;;;5107802;28;20198;-71
2021/11/18 03:17:41;;;;;;;16.70;6.15;;;7.90;99.90;;;;;;5108577;28;20204;-70
2021/11/18 03:20:10;;;;;;;17.65;5.20;;;7.90;99.90;;;;;;5105896;28;20198;-71
2021/11/18 03:22:38;;;;;;;13.85;4.68;;;8.00;99.90;;;;;;5102932;28;20530;-70
2021/11/18 03:25:07;;;;;;;18.75;5.60;;;7.90;99.90;;;;;;5098686;28;20205;-70
2021/11/18 03:27:36;;;;;;;15.57;5.78;;;7.90;99.90;;;;;;5107423;28;20251;-70
2021/11/18 03:30:04;;;;;;;15.23;6.32;;;7.90;99.90;;;;;;5097505;28;20691;-70
2021/11/18 03:32:31;;;;;;;16.65;5.38;;;7.80;99.90;;;;;;5097267;28;20622;-69
2021/11/18 03:34:59;;;;;;;18.50;5.57;;;7.80;99.90;;;;;;5095771;28;20202;-68
2021/11/18 03:37:25;;;;;;;20.30;6.28;;;7.80;99.90;;;;;;5103444;28;20225;-69
2021/11/18 03:39:53;;;;;;;19.92;6.20;;;7.80;99.90;;;;;;5096106;28;20194;-69
2021/11/18 03:42:20;;;;;;;18.30;6.57;;;7.90;99.90;;;;;;5093172;28;20312;-71
2021/11/18 03:44:50;;;;;;;14.48;6.85;;;7.90;99.90;;;;;;5093036;28;20212;-71
2021/11/18 03:47:17;;;;;;;15.43;7.20;;;7.90;99.90;;;;;;5092174;28;20227;-70
2021/11/18 03:49:45;;;;;;;20.38;7.20;;;7.90;99.90;;;;;;5093059;28;20332;-70
2021/11/18 03:52:14;;;;;;;24.70;5.68;;;7.90;99.90;;;;;;5092712;28;20206;-70
2021/11/18 03:54:43;;;;;;;10.95;4.80;;;7.90;99.90;;;;;;5092654;28;20761;-70
2021/11/18 03:57:11;;;;;;;17.60;5.65;;;7.80;99.90;;;;;;5091836;28;20226;-70
2021/11/18 03:59:40;;;;;;;12.45;6.10;;;7.80;99.90;;;;;;5093042;28;20244;-69
2021/11/18 04:02:09;;;;;;;16.58;6.88;;;7.80;99.90;;;;;;5092580;28;20213;-69
2021/11/18 04:04:38;;;;;;;18.00;5.72;;;7.80;99.90;;;;;;5092709;28;20223;-69
2021/11/18 04:07:06;;;;;;;25.50;6.88;;;7.80;99.90;;;;;;5091415;28;20244;-69
2021/11/18 04:09:33;;;;;;;17.05;6.18;;;7.80;99.90;;;;;;5092698;28;20236;-69
2021/11/18 04:12:01;;;;;;;23.23;6.95;;;7.90;99.90;;;;;;5092788;28;20283;-70
2021/11/18 04:14:29;;;;;;;19.88;7.93;;;7.90;99.90;;;;;;5092568;28;20237;-69
2021/11/18 04:16:56;;;;;;;18.33;5.68;;;7.90;99.90;;;;;;5091301;28;20222;-68
2021/11/18 04:19:25;;;;;;;18.05;7.22;;;7.90;99.90;;;;;;5072239;28;20234;-70
2021/11/18 04:21:52;;;;;;;18.23;8.32;;;7.90;99.90;;;;;;5072271;28;20214;-69
2021/11/18 04:24:23;;;;;;;21.08;6.60;;;7.90;99.90;;;;;;5075091;28;20496;-69
2021/11/18 04:26:51;;;;;;;19.92;6.90;;;8.00;99.90;;;;;;5071735;28;20269;-69
2021/11/18 04:29:27;;;;;;;16.65;6.32;;;8.00;99.90;;;;;;5072473;28;20275;-69
2021/11/18 04:31:54;;;;;;;20.00;8.20;;;8.00;99.90;;;;;;5075858;28;20225;-69
2021/11/18 04:34:21;;;;;;;19.88;7.10;;;8.00;99.90;;;;;;5091165;28;20667;-69
2021/11/18 04:36:50;;;;;;;27.15;8.40;;;8.00;99.90;;;;;;5099133;28;20269;-70
2021/11/18 04:39:17;;;;;;;15.30;6.50;;;8.00;99.90;;;;;;5104178;28;20198;-70
2021/11/18 04:41:44;;;;;;;29.65;8.07;;;8.00;99.90;;;;;;5100583;28;20282;-70
2021/11/18 04:44:11;;;;;;;16.95;7.07;;;8.00;99.90;;;;;;5097413;28;20218;-69
2021/11/18 04:46:39;;;;;;;20.23;7.63;;;8.00;99.90;;;;;;5104595;28;20275;-71
2021/11/18 04:49:07;;;;;;;17.33;6.57;;;8.00;99.90;;;;;;5099354;28;20226;-69
2021/11/18 04:51:34;;;;;;;15.10;6.57;;;8.00;99.90;;;;;;5101532;28;20567;-70
2021/11/18 04:54:04;;;;;;;19.15;8.57;;;8.00;99.90;;;;;;5099643;28;20213;-69
2021/11/18 04:56:32;;;;;;;13.48;6.53;;;8.00;99.90;;;;;;5102578;28;20225;-70
2021/11/18 04:58:59;;;;;;;25.60;8.90;;;8.00;99.90;;;;;;5100180;28;20239;-70
2021/11/18 05:01:28;;;;;;;24.02;7.60;;;8.00;99.90;;;;;;5098676;28;20246;-70
2021/11/18 05:03:55;;;;;;;17.33;7.60;;;8.10;99.90;;;;;;5096418;28;20202;-70
2021/11/18 05:06:23;;;;;;;16.02;7.28;;;8.10;99.90;;;;;;5099206;28;20260;-70
2021/11/18 05:08:51;;;;;;;24.63;7.88;;;8.10;99.90;;;;;;5106019;28;20262;-70
2021/11/18 05:11:22;;;;;;;29.58;8.32;;;8.10;99.90;;;;;;5101638;28;20202;-70
2021/11/18 05:13:50;;;;;;;25.55;9.15;;;8.10;99.90;;;;;;5095183;28;20284;-70
2021/11/18 05:16:18;;;;;;;26.75;8.30;;;8.20;99.90;;;;;;5103277;28;20274;-70
2021/11/18 05:18:46;;;;;;;16.55;9.27;;;8.20;99.90;;;;;;5099783;28;20202;-70
2021/11/18 05:21:17;;;;;;;24.25;8.90;;;8.30;99.90;;;;;;5095498;28;20202;-70
2021/11/18 05:23:45;;;;;;;20.83;8.60;;;8.30;99.90;;;;;;5096391;28;20206;-70
2021/11/18 05:26:14;;;;;;;23.70;7.60;;;8.20;99.90;;;;;;5100125;28;20320;-70
2021/11/18 05:28:44;;;;;;;18.30;8.77;;;8.30;99.90;;;;;;5094606;28;20221;-70
2021/11/18 05:31:11;;;;;;;18.23;8.45;;;8.40;99.90;;;;;;5095385;28;20250;-69
2021/11/18 05:33:38;;;;;;;26.40;9.18;;;8.30;99.90;;;;;;5095260;28;20282;-69
2021/11/18 05:36:06;;;;;;;20.27;9.40;;;8.30;99.90;;;;;;5094661;28;20232;-70
2021/11/18 05:38:34;;;;;;;19.58;9.15;;;8.40;99.90;;;;;;5094740;28;20235;-70
2021/11/18 05:41:01;;;;;;;24.63;8.88;;;8.30;99.90;;;;;;5094956;28;20190;-70
2021/11/18 05:43:30;;;;;;;24.27;9.43;;;8.40;99.90;;;;;;5094651;28;20210;-70
2021/11/18 05:45:58;;;;;;;28.52;10.63;;;8.40;99.90;;;;;;5093687;28;20233;-70
2021/11/18 05:48:26;;;;;;;19.70;8.90;;;8.50;99.90;;;;;;5094452;28;20271;-70
2021/11/18 05:50:57;;;;;;;24.15;10.20;;;8.50;99.90;;;;;;5094766;28;20234;-70
2021/11/18 05:53:29;;;;;;;29.08;9.70;;;8.40;99.90;;;;;;5094983;28;20190;-69
2021/11/18 05:55:58;;;;;;;21.75;10.38;;;8.50;99.90;;;;;;5094468;28;20274;-70
2021/11/18 05:58:25;;;;;;;22.90;9.90;;;8.40;99.90;;;;;;5094877;28;20260;-71
2021/11/18 06:00:52;;;;;;;21.02;9.60;;;8.40;99.90;;;;;;5095051;28;20552;-70
2021/11/18 06:03:21;;;;;;;25.40;10.68;;;8.40;99.90;;;;;;5094462;28;20244;-71
2021/11/18 06:05:48;;;;;;;25.80;9.85;;;8.40;99.90;;;;;;5093852;28;20229;-70
2021/11/18 06:08:15;;;;;;;22.63;10.00;;;8.40;99.90;;;;;;5094295;28;20282;-70
2021/11/18 06:10:42;;;;;;;21.90;10.60;;;8.50;99.90;;;;;;5094532;28;20249;-71
2021/11/18 06:13:11;;;;;;;21.33;10.07;;;8.40;99.90;;;;;;5094561;28;20212;-73
2021/11/18 06:15:38;;;;;;;17.65;9.45;;;8.40;99.90;;;;;;5093519;28;20245;-74
2021/11/18 06:18:06;;;;;;;32.22;11.20;;;8.40;99.90;;;;;;5083737;28;20195;-73
2021/11/18 06:20:34;;;;;;;28.90;10.82;;;8.40;99.90;;;;;;5076646;28;20201;-71
2021/11/18 06:23:04;;;;;;;23.42;11.35;;;8.40;99.90;;;;;;5087251;28;20266;-74
2021/11/18 06:25:35;;;;;;;21.00;10.32;;;8.40;99.90;;;;;;5086872;28;20275;-72
2021/11/18 06:28:03;;;;;;;38.30;12.07;;;8.30;99.90;;;;;;5082165;28;20505;-72
2021/11/18 06:30:33;;;;;;;25.95;9.98;;;8.40;99.90;;;;;;5080302;28;20223;-73
2021/11/18 06:33:00;;;;;;;28.45;11.75;;;8.40;99.90;;;;;;5091498;28;20660;-74
2021/11/18 06:35:27;;;;;;;25.10;11.88;;;8.40;99.90;;;;;;5088474;28;20264;-72
2021/11/18 06:37:57;;;;;;;25.48;11.05;;;8.40;99.90;;;;;;5084076;28;20641;-72
2021/11/18 06:40:25;;;;;;;25.55;9.80;;;8.50;99.90;;;;;;5075284;28;20195;-71
2021/11/18 06:42:52;;;;;;;31.70;12.85;;;8.50;99.90;;;;;;5078097;28;20202;-71
2021/11/18 06:45:23;;;;;;;24.92;10.65;;;8.50;99.90;;;;;;5102800;28;20671;-71
2021/11/18 06:47:50;;;;;;;25.88;12.90;;;8.50;99.90;;;;;;5077025;28;20197;-71
2021/11/18 06:50:19;;;;;;;33.83;13.25;;;8.50;99.90;;;;;;5083146;28;20216;-71
2021/11/18 06:52:46;;;;;;;29.40;10.75;;;8.50;99.90;;;;;;5075066;28;20577;-71
2021/11/18 06:55:16;;;;;;;23.23;13.05;;;8.50;99.90;;;;;;5084536;28;20202;-72
2021/11/18 06:57:46;;;;;;;36.72;13.48;;;8.60;99.90;;;;;;5093485;28;20653;-71
2021/11/18 07:00:14;;;;;;;33.67;10.95;;;8.70;99.90;;;;;;5094398;28;20194;-70
2021/11/18 07:02:41;;;;;;;26.02;12.40;;;8.60;99.90;;;;;;5080971;28;20558;-71
2021/11/18 07:05:08;;;;;;;29.85;13.15;;;8.60;99.90;;;;;;5073121;28;20266;-71
2021/11/18 07:07:35;;;;;;;25.67;11.27;;;8.60;99.90;;;;;;5081803;28;20218;-69
2021/11/18 07:10:05;;;;;;;31.27;12.73;;;8.70;99.90;;;;;;5081121;28;20242;-70
2021/11/18 07:12:33;;;;;;;32.70;14.07;;;8.70;99.90;;;;;;5076321;28;20202;-71
2021/11/18 07:15:01;;;;;;;33.08;13.48;;;8.70;99.90;;;;;;5082680;28;20259;-70
2021/11/18 07:17:30;;;;;;;19.20;10.05;;;8.80;99.90;;;;;;5081269;28;20227;-72
2021/11/18 07:19:57;;;;;;;25.63;11.20;;;8.80;99.90;;;;;;5081001;28;20198;-70
2021/11/18 07:22:27;;;;;;;25.55;11.57;;;8.80;99.90;;;;;;5080780;28;20203;-73
2021/11/18 07:24:55;;;;;;;23.50;10.60;;;8.90;99.90;;;;;;5077657;28;20199;-69
2021/11/18 07:27:22;;;;;;;23.98;10.70;;;8.80;99.90;;;;;;5077054;28;20676;-70
2021/11/18 07:29:50;;;;;;;28.75;11.23;;;8.80;99.90;;;;;;5089699;28;20217;-70
2021/11/18 07:32:17;;;;;;;20.98;11.38;;;8.90;99.90;;;;;;5092339;28;20713;-71
2021/11/18 07:34:45;;;;;;;35.33;17.48;;;8.90;99.90;;;;;;5082750;28;20624;-71
2021/11/18 07:37:11;;;;;;;26.83;13.10;;;9.10;99.90;;;;;;5075868;28;20680;-72
2021/11/18 07:39:38;;;;;;;28.08;11.27;;;9.40;99.90;;;;;;5078913;28;20245;-73
2021/11/18 07:42:06;;;;;;;26.20;10.75;;;9.40;99.90;;;;;;5089914;28;20209;-73
2021/11/18 07:44:33;;;;;;;20.55;9.95;;;9.30;99.90;;;;;;5085405;28;20243;-71
2021/11/18 07:47:01;;;;;;;25.90;11.27;;;9.30;99.90;;;;;;5078033;28;20574;-71
2021/11/18 07:49:28;;;;;;;28.48;11.02;;;9.30;99.90;;;;;;5087536;28;20306;-71
2021/11/18 07:51:55;;;;;;;31.20;11.52;;;9.30;99.90;;;;;;5084328;28;20559;-73
2021/11/18 07:54:24;;;;;;;23.85;10.23;;;9.30;99.90;;;;;;5074733;28;20719;-72
2021/11/18 07:56:51;;;;;;;26.33;11.35;;;9.30;99.90;;;;;;5084601;28;20222;-71
2021/11/18 07:59:19;;;;;;;29.67;11.52;;;9.30;99.90;;;;;;5074368;28;20202;-72
2021/11/18 08:01:46;;;;;;;32.80;11.60;;;9.30;99.90;;;;;;5070756;28;20195;-71
2021/11/18 08:04:15;;;;;;;16.13;9.85;;;9.40;99.90;;;;;;5084966;28;20198;-71
2021/11/18 08:06:43;;;;;;;18.98;9.80;;;9.40;99.90;;;;;;5084641;28;20227;-71
2021/11/18 08:09:11;;;;;;;25.67;10.48;;;9.50;99.90;;;;;;5077156;28;20685;-71
2021/11/18 08:11:41;;;;;;;22.02;11.13;;;9.60;99.90;;;;;;5083881;28;20206;-72
2021/11/18 08:14:08;;;;;;;25.92;9.98;;;9.80;99.90;;;;;;5090987;28;20272;-71
2021/11/18 08:16:35;;;;;;;28.65;11.25;;;9.80;99.90;;;;;;5086723;28;20246;-72
2021/11/18 08:19:04;;;;;;;19.55;9.80;;;9.60;99.90;;;;;;5086096;28;20201;-71
2021/11/18 08:21:33;;;;;;;23.85;10.05;;;9.70;99.90;;;;;;5086106;28;20209;-73
2021/11/18 08:24:00;;;;;;;26.70;11.30;;;9.60;99.90;;;;;;5095704;28;20562;-72
2021/11/18 08:26:28;;;;;;;20.55;10.90;;;9.70;99.90;;;;;;5082377;28;20246;-72
2021/11/18 08:28:56;;;;;;;23.85;8.63;;;9.60;99.90;;;;;;5076594;28;20199;-72
2021/11/18 08:31:24;;;;;;;22.67;8.77;;;9.70;99.90;;;;;;5090412;28;20747;-73
2021/11/18 08:33:52;;;;;;;25.35;10.82;;;9.70;99.90;;;;;;5082633;28;20203;-71
2021/11/18 08:36:19;;;;;;;23.83;9.35;;;9.70;99.90;;;;;;5081024;28;20253;-70
2021/11/18 08:38:48;;;;;;;21.08;9.38;;;9.80;99.90;;;;;;5084309;28;20244;-70
2021/11/18 08:41:16;;;;;;;23.52;10.45;;;9.80;99.90;;;;;;5087512;28;20297;-72
2021/11/18 08:43:45;;;;;;;24.00;10.25;;;9.90;99.90;;;;;;5088415;28;20199;-72
2021/11/18 08:46:13;;;;;;;20.50;10.10;;;9.90;99.90;;;;;;5091887;28;20271;-71
2021/11/18 08:48:41;;;;;;;23.08;9.98;;;10.00;99.90;;;;;;5096344;28;20233;-73
2021/11/18 08:51:10;;;;;;;24.20;9.40;;;9.90;99.90;;;;;;5095208;28;20218;-70
2021/11/18 08:53:39;;;;;;;30.33;10.82;;;10.00;99.90;;;;;;5089618;28;20265;-72
2021/11/18 08:56:09;;;;;;;23.67;8.85;;;10.20;99.90;;;;;;5078079;28;20326;-71
2021/11/18 08:58:39;;;;;;;24.95;9.38;;;10.30;99.90;;;;;;5080136;28;20738;-71
2021/11/18 09:01:08;;;;;;;29.60;9.65;;;10.40;99.90;;;;;;5084233;28;20624;-71
2021/11/18 09:03:36;;;;;;;19.90;9.68;;;10.40;99.90;;;;;;5090216;28;20553;-71
2021/11/18 09:06:07;;;;;;;25.83;10.43;;;10.50;99.90;;;;;;5085827;28;20301;-72
2021/11/18 09:08:34;;;;;;;20.48;8.93;;;10.40;99.90;;;;;;5083698;28;20264;-72
2021/11/18 09:11:03;;;;;;;19.48;9.48;;;10.40;99.90;;;;;;5085479;28;20269;-72
2021/11/18 09:13:31;;;;;;;23.60;10.52;;;10.40;99.90;;;;;;5088667;28;20198;-72
2021/11/18 09:15:58;;;;;;;26.50;8.85;;;10.40;99.90;;;;;;5086597;28;20299;-71
2021/11/18 09:18:25;;;;;;;16.35;8.45;;;10.40;99.90;;;;;;5083033;28;20529;-71
2021/11/18 09:20:57;;;;;;;27.10;10.85;;;10.40;99.90;;;;;;5090745;28;20251;-71
2021/11/18 09:23:27;;;;;;;20.45;11.15;;;10.40;99.90;;;;;;5090893;28;20653;-69
2021/11/18 09:25:54;;;;;;;32.40;10.52;;;10.40;99.90;;;;;;5084668;28;20283;-72
2021/11/18 09:28:23;;;;;;;20.00;9.30;;;10.50;99.90;;;;;;5082840;28;20639;-71
2021/11/18 09:30:56;;;;;;;26.80;9.48;;;10.50;99.90;;;;;;5087333;28;20218;-72
2021/11/18 09:33:24;;;;;;;22.95;9.00;;;10.50;99.90;;;;;;5088875;28;20190;-72
2021/11/18 09:35:53;;;;;;;17.73;8.60;;;10.40;99.90;;;;;;5093873;28;20249;-71
2021/11/18 09:38:23;;;;;;;19.75;8.05;;;10.40;99.90;;;;;;5078450;28;20589;-72
2021/11/18 09:40:53;;;;;;;22.65;8.02;;;10.50;99.90;;;;;;5081493;28;20260;-72
2021/11/18 09:43:59;;;;;;;19.92;9.55;;;10.60;99.90;;;;;;5098287;28;20234;-73
2021/11/18 09:46:57;;;;;;;29.80;8.65;;;10.60;99.90;;;;;;5073400;28;20261;-72
2021/11/18 09:49:58;;;;;;;32.67;8.70;;;10.50;99.90;;;;;;5074834;28;20283;-73
2021/11/18 09:52:34;;;;;;;29.38;8.93;;;10.50;99.90;;;;;;5082561;28;20273;-72
2021/11/18 09:55:08;;;;;;;17.67;8.63;;;10.50;99.90;;;;;;5085681;28;20277;-72
2021/11/18 09:57:49;;;;;;;17.83;8.80;;;10.50;99.90;;;;;;5080119;28;20222;-72
2021/11/18 10:00:22;;;;;;;22.77;8.43;;;10.50;99.90;;;;;;5083321;28;20276;-72
2021/11/18 10:03:19;;;;;;;16.55;8.70;;;10.70;99.90;;;;;;5077389;28;20205;-71
2021/11/18 10:06:02;;;;;;;22.33;9.05;;;10.90;99.90;;;;;;5088983;28;20283;-72
2021/11/18 10:08:32;;;;;;;26.40;9.13;;;11.00;99.90;;;;;;5080600;28;20312;-72
2021/11/18 10:11:14;;;;;;;20.67;7.70;;;11.00;99.90;;;;;;5077184;28;20669;-74
2021/11/18 10:14:01;;;;;;;18.52;7.35;;;11.10;99.90;;;;;;5082129;28;20662;-73
2021/11/18 10:16:32;;;;;;;20.35;8.55;;;11.10;99.90;;;;;;5082026;28;20251;-73
2021/11/18 10:19:07;;;;;;;20.52;8.45;;;11.30;99.90;;;;;;5095169;28;20208;-72
2021/11/18 10:21:36;;;;;;;21.00;8.32;;;11.50;99.90;;;;;;5090301;28;20253;-72
2021/11/18 10:24:12;;;;;;;20.60;7.55;;;11.60;99.90;;;;;;5083995;28;20204;-73
2021/11/18 10:26:42;;;;;;;23.70;8.00;;;11.60;99.90;;;;;;5082180;28;20222;-73
2021/11/18 10:29:14;;;;;;;22.52;8.73;;;11.50;99.90;;;;;;5093791;28;20745;-72
2021/11/18 10:31:49;;;;;;;28.45;9.23;;;11.40;99.90;;;;;;5088906;28;20574;-72
2021/11/18 10:34:22;;;;;;;15.75;7.10;;;11.40;99.90;;;;;;5082726;28;20256;-72
2021/11/18 10:37:09;;;;;;;16.77;7.50;;;11.20;99.90;;;;;;5086636;28;20267;-71
2021/11/18 10:39:59;;;;;;;20.20;7.72;;;11.30;99.90;;;;;;5085147;28;20599;-70
2021/11/18 10:42:31;;;;;;;15.80;7.50;;;11.30;99.90;;;;;;5086352;28;20204;-71
2021/11/18 10:45:01;;;;;;;15.98;8.23;;;11.30;99.90;;;;;;5084631;28;20681;-72
2021/11/18 10:47:32;;;;;;;39.42;8.73;;;11.40;99.90;;;;;;5082467;28;20223;-72
2021/11/18 10:50:08;;;;;;;17.98;7.50;;;11.40;99.90;;;;;;5079200;28;20212;-71
2021/11/18 10:52:38;;;;;;;21.05;7.30;;;11.50;99.90;;;;;;5072997;28;20200;-72
2021/11/18 10:55:12;;;;;;;18.75;8.57;;;11.60;99.90;;;;;;5090872;28;20200;-72
2021/11/18 10:57:54;;;;;;;14.52;7.10;;;11.50;99.90;;;;;;5084059;28;20231;-72
2021/11/18 11:00:24;;;;;;;23.15;7.47;;;11.50;99.90;;;;;;5083456;28;20243;-71
2021/11/18 11:02:52;;;;;;;13.32;6.68;;;11.70;99.90;;;;;;5087632;28;20246;-71
2021/11/18 11:05:37;;;;;;;16.95;7.30;;;11.60;99.90;;;;;;5083957;28;20198;-72
2021/11/18 11:08:26;;;;;;;13.57;6.05;;;11.50;99.90;;;;;;5092130;28;20210;-70
2021/11/18 11:10:59;;;;;;;15.70;6.93;;;11.40;99.90;;;;;;5081553;28;20271;-71
2021/11/18 11:13:57;;;;;;;18.38;7.22;;;11.30;99.90;;;;;;5081768;28;20209;-70
2021/11/18 11:16:50;;;;;;;20.80;6.53;;;11.30;99.90;;;;;;5084603;28;20228;-74
2021/11/18 11:19:34;;;;;;;19.52;6.65;;;11.40;99.90;;;;;;5084363;28;20210;-71
2021/11/18 11:22:10;;;;;;;31.88;9.65;;;11.40;99.90;;;;;;5080494;28;20217;-71
2021/11/18 11:25:04;;;;;;;13.85;6.05;;;11.50;99.90;;;;;;5090308;28;20304;-72
2021/11/18 11:28:02;;;;;;;26.05;10.18;;;11.50;99.90;;;;;;5081207;28;20278;-71
2021/11/18 11:30:36;;;;;;;13.73;6.68;;;11.40;99.90;;;;;;5080071;28;20206;-71
2021/11/18 11:33:10;;;;;;;16.13;6.40;;;11.50;99.90;;;;;;5094586;28;20287;-71
2021/11/18 11:35:54;;;;;;;15.82;7.03;;;11.40;99.90;;;;;;5083479;28;20247;-70
2021/11/18 11:39:11;;;;;;;24.20;7.45;;;11.40;99.90;;;;;;5089643;28;20236;-73
2021/11/18 11:42:19;;;;;;;13.85;5.93;;;11.50;99.90;;;;;;5093374;28;20201;-72
2021/11/18 11:45:02;;;;;;;25.10;6.45;;;11.50;99.90;;;;;;5105804;28;20206;-73
2021/11/18 11:47:54;;;;;;;14.20;7.35;;;11.50;99.90;;;;;;5109021;28;20222;-70
2021/11/18 11:50:29;;;;;;;17.77;5.70;;;11.40;99.90;;;;;;5081302;28;20197;-71
2021/11/18 11:53:02;;;;;;;12.55;6.95;;;11.50;99.90;;;;;;5080720;28;20226;-71
2021/11/18 11:55:44;;;;;;;14.88;6.28;;;11.50;99.90;;;;;;5094535;28;20666;-70
2021/11/18 11:58:16;;;;;;;15.57;6.35;;;11.50;99.90;;;;;;5092933;28;20320;-72
2021/11/18 12:00:52;;;;;;;18.85;7.05;;;11.60;99.90;;;;;;5093309;28;20265;-72
2021/11/18 12:03:34;;;;;;;14.73;5.68;;;11.60;99.90;;;;;;5087201;28;20262;-72
2021/11/18 12:06:10;;;;;;;26.73;6.38;;;11.60;99.90;;;;;;5095286;28;20238;-75
2021/11/18 12:08:44;;;;;;;18.05;6.22;;;11.70;99.90;;;;;;5095131;28;20206;-73
2021/11/18 12:11:14;;;;;;;23.02;6.85;;;11.80;99.90;;;;;;5090767;28;20289;-72
2021/11/18 12:13:58;;;;;;;17.48;5.82;;;11.80;99.90;;;;;;5086864;28;20209;-72
2021/11/18 12:16:31;;;;;;;22.98;7.43;;;11.80;99.90;;;;;;5087834;28;20730;-72
2021/11/18 12:19:03;;;;;;;18.25;5.88;;;11.70;99.90;;;;;;5095757;28;20257;-72
2021/11/18 12:21:32;;;;;;;14.40;5.90;;;11.70;99.90;;;;;;5085183;28;20233;-72
2021/11/18 12:24:04;;;;;;;20.98;6.20;;;11.70;99.90;;;;;;5096040;28;20294;-72
2021/11/18 12:26:45;;;;;;;14.57;6.82;;;11.80;99.90;;;;;;5085930;28;20241;-71
2021/11/18 12:29:25;;;;;;;17.88;6.93;;;11.70;99.90;;;;;;5083053;28;20203;-74
2021/11/18 12:32:35;;;;;;;24.35;7.22;;;11.60;99.90;;;;;;5092466;28;20221;-72
2021/11/18 12:35:44;;;;;;;28.63;7.40;;;11.50;99.90;;;;;;5083671;28;20203;-73
2021/11/18 12:38:34;;;;;;;18.30;7.75;;;11.40;99.90;;;;;;5083452;28;20291;-72
2021/11/18 12:41:44;;;;;;;18.63;7.90;;;11.50;99.90;;;;;;5102016;28;20579;-73
2021/11/18 12:44:32;;;;;;;20.85;8.27;;;11.40;99.90;;;;;;5081353;28;20272;-73
2021/11/18 12:47:04;;;;;;;17.92;7.15;;;11.30;99.90;;;;;;5082496;28;20224;-73
2021/11/18 12:50:00;;;;;;;22.48;7.28;;;11.40;99.90;;;;;;5077681;28;20201;-71
2021/11/18 12:52:31;;;;;;;23.30;7.90;;;11.40;99.90;;;;;;5081103;28;20317;-72
2021/11/18 12:55:26;;;;;;;17.75;7.00;;;11.50;99.90;;;;;;5091080;28;20199;-73
2021/11/18 12:57:59;;;;;;;24.33;8.25;;;11.50;99.90;;;;;;5086663;28;20223;-72
2021/11/18 13:00:40;;;;;;;16.35;5.88;;;11.50;99.90;;;;;;5076777;28;20565;-72
2021/11/18 13:03:08;;;;;;;21.40;5.85;;;11.60;99.90;;;;;;5087338;28;20195;-73
2021/11/18 13:05:46;;;;;;;24.05;9.00;;;11.50;99.90;;;;;;5099315;28;20231;-71